sensor_id;sensor_type;location;lat;lon;timestamp;P1;durP1;ratioP1;P2;durP2;ratioP2
19291;SDS011;9779;51.756;7.450;2022-07-29T00:01:14;2.63;;;1.00;;
19291;SDS011;9779;51.756;7.450;2022-07-29T00:03:40;4.70;;;1.10;;
19291;SDS011;9779;51.756;7.450;2022-07-29T00:06:06;1.50;;;0.70;;
19291;SDS011;9779;51.756;7.450;2022-07-29T00:08:32;2.43;;;0.80;;
19291;SDS011;9779;51.756;7.450;2022-07-29T00:10:58;2.00;;;0.70;;
19291;SDS011;9779;51.756;7.450;2022-07-29T00:13:24;4.27;;;1.03;;
19291;SDS011;9779;51.756;7.450;2022-07-29T00:15:49;1.03;;;0.60;;
19291;SDS011;9779;51.756;7.450;2022-07-29T00:18:15;3.83;;;0.70;;
19291;SDS011;9779;51.756;7.450;2022-07-29T00:20:40;5.87;;;0.70;;
19291;SDS011;9779;51.756;7.450;2022-07-29T00:23:06;1.57;;;0.87;;
19291;SDS011;9779;51.756;7.450;2022-07-29T00:25:32;1.60;;;0.97;;
19291;SDS011;9779;51.756;7.450;2022-07-29T00:27:57;2.83;;;0.70;;
19291;SDS011;9779;51.756;7.450;2022-07-29T00:30:23;1.20;;;0.90;;
19291;SDS011;9779;51.756;7.450;2022-07-29T00:32:48;2.13;;;0.83;;
19291;SDS011;9779;51.756;7.450;2022-07-29T00:35:14;4.63;;;0.60;;
19291;SDS011;9779;51.756;7.450;2022-07-29T00:37:58;1.80;;;0.60;;
19291;SDS011;9779;51.756;7.450;2022-07-29T00:40:24;1.27;;;0.80;;
19291;SDS011;9779;51.756;7.450;2022-07-29T00:42:50;2.93;;;0.70;;
19291;SDS011;9779;51.756;7.450;2022-07-29T00:45:16;3.30;;;0.90;;
19291;SDS011;9779;51.756;7.450;2022-07-29T00:47:42;1.87;;;0.77;;
19291;SDS011;9779;51.756;7.450;2022-07-29T00:50:09;2.87;;;0.70;;
19291;SDS011;9779;51.756;7.450;2022-07-29T00:52:37;2.53;;;0.97;;
19291;SDS011;9779;51.756;7.450;2022-07-29T00:55:03;2.57;;;0.60;;
19291;SDS011;9779;51.756;7.450;2022-07-29T00:57:30;2.70;;;0.83;;
19291;SDS011;9779;51.756;7.450;2022-07-29T00:59:57;4.00;;;1.00;;
19291;SDS011;9779;51.756;7.450;2022-07-29T01:02:22;1.47;;;0.90;;
19291;SDS011;9779;51.756;7.450;2022-07-29T01:04:48;1.07;;;0.80;;
19291;SDS011;9779;51.756;7.450;2022-07-29T01:07:14;2.87;;;0.67;;
19291;SDS011;9779;51.756;7.450;2022-07-29T01:09:40;0.90;;;0.73;;
19291;SDS011;9779;51.756;7.450;2022-07-29T01:12:08;6.33;;;0.70;;
19291;SDS011;9779;51.756;7.450;2022-07-29T01:14:34;1.07;;;0.63;;
19291;SDS011;9779;51.756;7.450;2022-07-29T01:17:06;1.60;;;1.03;;
19291;SDS011;9779;51.756;7.450;2022-07-29T01:25:21;3.40;;;0.80;;
19291;SDS011;9779;51.756;7.450;2022-07-29T01:28:17;2.30;;;0.70;;
19291;SDS011;9779;51.756;7.450;2022-07-29T01:31:06;7.53;;;0.90;;
19291;SDS011;9779;51.756;7.450;2022-07-29T01:33:35;7.27;;;0.80;;
19291;SDS011;9779;51.756;7.450;2022-07-29T01:36:22;6.43;;;0.70;;
19291;SDS011;9779;51.756;7.450;2022-07-29T01:39:11;4.67;;;0.90;;
19291;SDS011;9779;51.756;7.450;2022-07-29T01:41:44;1.57;;;0.60;;
19291;SDS011;9779;51.756;7.450;2022-07-29T01:44:22;3.17;;;0.97;;
19291;SDS011;9779;51.756;7.450;2022-07-29T01:46:57;6.43;;;0.70;;
19291;SDS011;9779;51.756;7.450;2022-07-29T01:49:29;1.13;;;0.80;;
19291;SDS011;9779;51.756;7.450;2022-07-29T01:52:01;8.07;;;0.93;;
19291;SDS011;9779;51.756;7.450;2022-07-29T01:54:37;1.03;;;0.90;;
19291;SDS011;9779;51.756;7.450;2022-07-29T01:57:11;1.50;;;0.80;;
19291;SDS011;9779;51.756;7.450;2022-07-29T01:59:39;3.07;;;0.63;;
19291;SDS011;9779;51.756;7.450;2022-07-29T02:02:08;7.23;;;1.03;;
19291;SDS011;9779;51.756;7.450;2022-07-29T02:04:36;4.33;;;0.70;;
19291;SDS011;9779;51.756;7.450;2022-07-29T02:07:06;2.87;;;0.70;;
19291;SDS011;9779;51.756;7.450;2022-07-29T02:09:34;1.63;;;0.70;;
19291;SDS011;9779;51.756;7.450;2022-07-29T02:12:03;2.43;;;0.87;;
19291;SDS011;9779;51.756;7.450;2022-07-29T02:14:31;6.10;;;0.60;;
19291;SDS011;9779;51.756;7.450;2022-07-29T02:16:58;5.43;;;0.73;;
19291;SDS011;9779;51.756;7.450;2022-07-29T02:19:27;2.23;;;0.60;;
19291;SDS011;9779;51.756;7.450;2022-07-29T02:21:54;2.00;;;0.93;;
19291;SDS011;9779;51.756;7.450;2022-07-29T02:24:22;1.33;;;0.70;;
19291;SDS011;9779;51.756;7.450;2022-07-29T02:26:50;2.17;;;0.77;;
19291;SDS011;9779;51.756;7.450;2022-07-29T02:29:19;4.00;;;0.97;;
19291;SDS011;9779;51.756;7.450;2022-07-29T02:31:48;1.47;;;0.73;;
19291;SDS011;9779;51.756;7.450;2022-07-29T02:34:15;2.93;;;0.93;;
19291;SDS011;9779;51.756;7.450;2022-07-29T02:36:42;1.57;;;0.90;;
19291;SDS011;9779;51.756;7.450;2022-07-29T02:39:09;4.77;;;1.10;;
19291;SDS011;9779;51.756;7.450;2022-07-29T02:41:40;4.40;;;0.67;;
19291;SDS011;9779;51.756;7.450;2022-07-29T02:44:13;3.33;;;0.90;;
19291;SDS011;9779;51.756;7.450;2022-07-29T02:46:43;2.30;;;0.73;;
19291;SDS011;9779;51.756;7.450;2022-07-29T02:49:25;3.80;;;0.93;;
19291;SDS011;9779;51.756;7.450;2022-07-29T02:52:08;2.40;;;0.97;;
19291;SDS011;9779;51.756;7.450;2022-07-29T02:54:42;8.30;;;1.00;;
19291;SDS011;9779;51.756;7.450;2022-07-29T02:57:22;11.33;;;1.00;;
19291;SDS011;9779;51.756;7.450;2022-07-29T03:00:08;5.07;;;1.00;;
19291;SDS011;9779;51.756;7.450;2022-07-29T03:02:36;2.40;;;0.80;;
19291;SDS011;9779;51.756;7.450;2022-07-29T03:05:05;2.63;;;1.40;;
19291;SDS011;9779;51.756;7.450;2022-07-29T03:07:34;2.77;;;0.90;;
19291;SDS011;9779;51.756;7.450;2022-07-29T03:10:00;5.73;;;0.70;;
19291;SDS011;9779;51.756;7.450;2022-07-29T03:12:27;1.77;;;0.80;;
19291;SDS011;9779;51.756;7.450;2022-07-29T03:14:54;2.20;;;0.90;;
19291;SDS011;9779;51.756;7.450;2022-07-29T03:17:21;1.40;;;0.90;;
19291;SDS011;9779;51.756;7.450;2022-07-29T03:19:47;1.47;;;0.60;;
19291;SDS011;9779;51.756;7.450;2022-07-29T03:22:13;2.83;;;1.23;;
19291;SDS011;9779;51.756;7.450;2022-07-29T03:24:39;5.00;;;1.03;;
19291;SDS011;9779;51.756;7.450;2022-07-29T03:27:04;3.83;;;1.23;;
19291;SDS011;9779;51.756;7.450;2022-07-29T03:29:30;3.40;;;0.90;;
19291;SDS011;9779;51.756;7.450;2022-07-29T03:31:57;1.70;;;0.90;;
19291;SDS011;9779;51.756;7.450;2022-07-29T03:34:22;3.80;;;1.00;;
19291;SDS011;9779;51.756;7.450;2022-07-29T03:36:48;3.20;;;0.87;;
19291;SDS011;9779;51.756;7.450;2022-07-29T03:39:15;3.27;;;1.03;;
19291;SDS011;9779;51.756;7.450;2022-07-29T03:41:45;2.53;;;0.80;;
19291;SDS011;9779;51.756;7.450;2022-07-29T03:44:14;4.20;;;1.07;;
19291;SDS011;9779;51.756;7.450;2022-07-29T03:46:43;2.37;;;1.00;;
19291;SDS011;9779;51.756;7.450;2022-07-29T03:49:10;1.83;;;0.90;;
19291;SDS011;9779;51.756;7.450;2022-07-29T03:51:37;1.17;;;0.70;;
19291;SDS011;9779;51.756;7.450;2022-07-29T03:54:03;2.73;;;1.03;;
19291;SDS011;9779;51.756;7.450;2022-07-29T03:56:30;4.10;;;1.10;;
19291;SDS011;9779;51.756;7.450;2022-07-29T03:58:59;4.07;;;1.43;;
19291;SDS011;9779;51.756;7.450;2022-07-29T04:01:27;2.23;;;1.30;;
19291;SDS011;9779;51.756;7.450;2022-07-29T04:03:54;2.77;;;1.17;;
19291;SDS011;9779;51.756;7.450;2022-07-29T04:06:20;4.60;;;1.33;;
19291;SDS011;9779;51.756;7.450;2022-07-29T04:08:45;4.87;;;1.10;;
19291;SDS011;9779;51.756;7.450;2022-07-29T04:11:11;5.10;;;1.30;;
19291;SDS011;9779;51.756;7.450;2022-07-29T04:13:37;1.03;;;0.80;;
19291;SDS011;9779;51.756;7.450;2022-07-29T04:16:03;2.80;;;1.10;;
19291;SDS011;9779;51.756;7.450;2022-07-29T04:18:29;3.93;;;0.77;;
19291;SDS011;9779;51.756;7.450;2022-07-29T04:20:54;1.73;;;0.97;;
19291;SDS011;9779;51.756;7.450;2022-07-29T04:23:20;4.57;;;1.30;;
19291;SDS011;9779;51.756;7.450;2022-07-29T04:25:46;8.30;;;1.00;;
19291;SDS011;9779;51.756;7.450;2022-07-29T04:28:11;2.07;;;0.80;;
19291;SDS011;9779;51.756;7.450;2022-07-29T04:30:37;2.33;;;1.00;;
19291;SDS011;9779;51.756;7.450;2022-07-29T04:33:04;7.20;;;1.00;;
19291;SDS011;9779;51.756;7.450;2022-07-29T04:35:33;1.17;;;0.67;;
19291;SDS011;9779;51.756;7.450;2022-07-29T04:38:00;4.67;;;1.00;;
19291;SDS011;9779;51.756;7.450;2022-07-29T04:40:26;3.53;;;0.90;;
19291;SDS011;9779;51.756;7.450;2022-07-29T04:42:52;2.43;;;1.13;;
19291;SDS011;9779;51.756;7.450;2022-07-29T04:45:18;2.17;;;1.20;;
19291;SDS011;9779;51.756;7.450;2022-07-29T04:47:43;3.00;;;1.10;;
19291;SDS011;9779;51.756;7.450;2022-07-29T04:50:09;1.10;;;0.70;;
19291;SDS011;9779;51.756;7.450;2022-07-29T04:52:35;7.40;;;1.43;;
19291;SDS011;9779;51.756;7.450;2022-07-29T04:55:02;3.20;;;1.40;;
19291;SDS011;9779;51.756;7.450;2022-07-29T04:57:28;7.60;;;1.33;;
19291;SDS011;9779;51.756;7.450;2022-07-29T04:59:53;6.20;;;1.10;;
19291;SDS011;9779;51.756;7.450;2022-07-29T05:02:19;4.07;;;1.00;;
19291;SDS011;9779;51.756;7.450;2022-07-29T05:04:45;4.17;;;1.67;;
19291;SDS011;9779;51.756;7.450;2022-07-29T05:07:10;2.90;;;1.10;;
19291;SDS011;9779;51.756;7.450;2022-07-29T05:09:36;10.73;;;1.03;;
19291;SDS011;9779;51.756;7.450;2022-07-29T05:12:01;3.93;;;1.17;;
19291;SDS011;9779;51.756;7.450;2022-07-29T05:14:27;2.37;;;0.83;;
19291;SDS011;9779;51.756;7.450;2022-07-29T05:16:52;2.77;;;0.90;;
19291;SDS011;9779;51.756;7.450;2022-07-29T05:19:21;1.90;;;1.23;;
19291;SDS011;9779;51.756;7.450;2022-07-29T05:21:47;9.97;;;1.33;;
19291;SDS011;9779;51.756;7.450;2022-07-29T05:24:12;2.27;;;1.07;;
19291;SDS011;9779;51.756;7.450;2022-07-29T05:26:39;10.03;;;0.97;;
19291;SDS011;9779;51.756;7.450;2022-07-29T05:29:05;4.00;;;0.93;;
19291;SDS011;9779;51.756;7.450;2022-07-29T05:31:31;5.37;;;0.90;;
19291;SDS011;9779;51.756;7.450;2022-07-29T05:33:56;5.73;;;1.50;;
19291;SDS011;9779;51.756;7.450;2022-07-29T05:36:22;11.17;;;1.70;;
19291;SDS011;9779;51.756;7.450;2022-07-29T05:38:47;2.53;;;1.20;;
19291;SDS011;9779;51.756;7.450;2022-07-29T05:41:13;4.03;;;1.23;;
19291;SDS011;9779;51.756;7.450;2022-07-29T05:43:38;2.47;;;1.13;;
19291;SDS011;9779;51.756;7.450;2022-07-29T05:46:04;2.63;;;1.17;;
19291;SDS011;9779;51.756;7.450;2022-07-29T05:48:30;2.60;;;1.50;;
19291;SDS011;9779;51.756;7.450;2022-07-29T05:50:55;6.03;;;1.73;;
19291;SDS011;9779;51.756;7.450;2022-07-29T05:53:21;7.33;;;0.97;;
19291;SDS011;9779;51.756;7.450;2022-07-29T05:55:47;2.10;;;1.00;;
19291;SDS011;9779;51.756;7.450;2022-07-29T05:58:13;5.27;;;1.20;;
19291;SDS011;9779;51.756;7.450;2022-07-29T06:00:38;3.87;;;0.90;;
19291;SDS011;9779;51.756;7.450;2022-07-29T06:03:04;5.47;;;0.97;;
19291;SDS011;9779;51.756;7.450;2022-07-29T06:05:30;6.10;;;1.03;;
19291;SDS011;9779;51.756;7.450;2022-07-29T06:07:55;2.70;;;0.87;;
19291;SDS011;9779;51.756;7.450;2022-07-29T06:10:21;2.40;;;1.00;;
19291;SDS011;9779;51.756;7.450;2022-07-29T06:12:47;3.80;;;1.00;;
19291;SDS011;9779;51.756;7.450;2022-07-29T06:15:12;4.10;;;0.90;;
19291;SDS011;9779;51.756;7.450;2022-07-29T06:17:38;3.97;;;1.30;;
19291;SDS011;9779;51.756;7.450;2022-07-29T06:20:03;1.53;;;1.27;;
19291;SDS011;9779;51.756;7.450;2022-07-29T06:22:29;2.13;;;0.93;;
19291;SDS011;9779;51.756;7.450;2022-07-29T06:24:55;5.07;;;1.23;;
19291;SDS011;9779;51.756;7.450;2022-07-29T06:27:21;1.43;;;1.10;;
19291;SDS011;9779;51.756;7.450;2022-07-29T06:29:46;10.63;;;1.53;;
19291;SDS011;9779;51.756;7.450;2022-07-29T06:32:12;6.30;;;1.13;;
19291;SDS011;9779;51.756;7.450;2022-07-29T06:34:37;2.33;;;1.13;;
19291;SDS011;9779;51.756;7.450;2022-07-29T06:37:06;5.43;;;1.27;;
19291;SDS011;9779;51.756;7.450;2022-07-29T06:39:36;3.83;;;1.13;;
19291;SDS011;9779;51.756;7.450;2022-07-29T06:42:03;3.10;;;1.07;;
19291;SDS011;9779;51.756;7.450;2022-07-29T06:44:29;2.87;;;1.00;;
19291;SDS011;9779;51.756;7.450;2022-07-29T06:46:55;4.20;;;1.53;;
19291;SDS011;9779;51.756;7.450;2022-07-29T06:49:21;1.77;;;1.30;;
19291;SDS011;9779;51.756;7.450;2022-07-29T06:51:48;3.90;;;1.17;;
19291;SDS011;9779;51.756;7.450;2022-07-29T06:54:14;9.23;;;1.63;;
19291;SDS011;9779;51.756;7.450;2022-07-29T06:56:39;5.70;;;1.30;;
19291;SDS011;9779;51.756;7.450;2022-07-29T06:59:10;2.30;;;1.20;;
19291;SDS011;9779;51.756;7.450;2022-07-29T07:01:37;5.37;;;1.13;;
19291;SDS011;9779;51.756;7.450;2022-07-29T07:04:05;5.40;;;1.03;;
19291;SDS011;9779;51.756;7.450;2022-07-29T07:06:30;5.57;;;1.60;;
19291;SDS011;9779;51.756;7.450;2022-07-29T07:08:56;9.23;;;1.50;;
19291;SDS011;9779;51.756;7.450;2022-07-29T07:11:21;3.40;;;1.17;;
19291;SDS011;9779;51.756;7.450;2022-07-29T07:13:47;5.03;;;1.30;;
19291;SDS011;9779;51.756;7.450;2022-07-29T07:16:13;3.17;;;1.10;;
19291;SDS011;9779;51.756;7.450;2022-07-29T07:18:38;6.57;;;1.80;;
19291;SDS011;9779;51.756;7.450;2022-07-29T07:21:04;4.30;;;1.47;;
19291;SDS011;9779;51.756;7.450;2022-07-29T07:23:30;3.10;;;1.00;;
19291;SDS011;9779;51.756;7.450;2022-07-29T07:25:56;2.23;;;1.50;;
19291;SDS011;9779;51.756;7.450;2022-07-29T07:28:21;9.03;;;1.40;;
19291;SDS011;9779;51.756;7.450;2022-07-29T07:30:47;3.77;;;1.50;;
19291;SDS011;9779;51.756;7.450;2022-07-29T07:33:13;3.60;;;1.23;;
19291;SDS011;9779;51.756;7.450;2022-07-29T07:35:39;3.17;;;1.07;;
19291;SDS011;9779;51.756;7.450;2022-07-29T07:38:05;3.13;;;0.90;;
19291;SDS011;9779;51.756;7.450;2022-07-29T07:40:31;2.00;;;1.47;;
19291;SDS011;9779;51.756;7.450;2022-07-29T07:42:57;4.30;;;1.43;;
19291;SDS011;9779;51.756;7.450;2022-07-29T07:45:22;6.70;;;1.40;;
19291;SDS011;9779;51.756;7.450;2022-07-29T07:47:48;7.33;;;1.23;;
19291;SDS011;9779;51.756;7.450;2022-07-29T07:50:14;1.27;;;0.97;;
19291;SDS011;9779;51.756;7.450;2022-07-29T07:52:49;2.27;;;1.00;;
19291;SDS011;9779;51.756;7.450;2022-07-29T07:55:17;2.60;;;1.57;;
19291;SDS011;9779;51.756;7.450;2022-07-29T07:57:43;5.13;;;1.40;;
19291;SDS011;9779;51.756;7.450;2022-07-29T08:00:10;7.53;;;1.00;;
19291;SDS011;9779;51.756;7.450;2022-07-29T08:02:37;2.97;;;1.37;;
19291;SDS011;9779;51.756;7.450;2022-07-29T08:05:04;8.00;;;0.87;;
19291;SDS011;9779;51.756;7.450;2022-07-29T08:07:30;5.37;;;1.00;;
19291;SDS011;9779;51.756;7.450;2022-07-29T08:09:56;1.83;;;1.10;;
19291;SDS011;9779;51.756;7.450;2022-07-29T08:12:21;2.80;;;0.83;;
19291;SDS011;9779;51.756;7.450;2022-07-29T08:14:47;2.47;;;1.20;;
19291;SDS011;9779;51.756;7.450;2022-07-29T08:17:12;8.17;;;1.23;;
19291;SDS011;9779;51.756;7.450;2022-07-29T08:19:38;7.13;;;1.93;;
19291;SDS011;9779;51.756;7.450;2022-07-29T08:22:04;8.23;;;4.97;;
19291;SDS011;9779;51.756;7.450;2022-07-29T08:24:29;3.87;;;2.20;;
19291;SDS011;9779;51.756;7.450;2022-07-29T08:27:13;11.90;;;1.73;;
19291;SDS011;9779;51.756;7.450;2022-07-29T08:29:39;2.27;;;1.30;;
19291;SDS011;9779;51.756;7.450;2022-07-29T08:32:05;4.23;;;1.27;;
19291;SDS011;9779;51.756;7.450;2022-07-29T08:34:31;2.77;;;1.20;;
19291;SDS011;9779;51.756;7.450;2022-07-29T08:36:57;1.50;;;1.33;;
19291;SDS011;9779;51.756;7.450;2022-07-29T08:39:23;5.20;;;1.70;;
19291;SDS011;9779;51.756;7.450;2022-07-29T08:41:49;8.65;;;2.10;;
19291;SDS011;9779;51.756;7.450;2022-07-29T08:44:16;7.70;;;1.27;;
19291;SDS011;9779;51.756;7.450;2022-07-29T08:46:42;2.10;;;1.20;;
19291;SDS011;9779;51.756;7.450;2022-07-29T08:49:08;2.73;;;1.03;;
19291;SDS011;9779;51.756;7.450;2022-07-29T08:51:34;6.23;;;1.20;;
19291;SDS011;9779;51.756;7.450;2022-07-29T08:54:02;3.40;;;1.60;;
19291;SDS011;9779;51.756;7.450;2022-07-29T08:56:28;8.50;;;1.30;;
19291;SDS011;9779;51.756;7.450;2022-07-29T08:58:54;2.67;;;1.43;;
19291;SDS011;9779;51.756;7.450;2022-07-29T09:01:25;5.53;;;1.43;;
19291;SDS011;9779;51.756;7.450;2022-07-29T09:03:54;2.03;;;1.30;;
19291;SDS011;9779;51.756;7.450;2022-07-29T09:06:22;2.43;;;1.00;;
19291;SDS011;9779;51.756;7.450;2022-07-29T09:08:50;2.70;;;1.50;;
19291;SDS011;9779;51.756;7.450;2022-07-29T09:11:16;5.05;;;1.30;;
19291;SDS011;9779;51.756;7.450;2022-07-29T09:13:42;2.22;;;1.40;;
19291;SDS011;9779;51.756;7.450;2022-07-29T09:16:07;3.72;;;1.70;;
19291;SDS011;9779;51.756;7.450;2022-07-29T09:21:00;5.47;;;1.50;;
19291;SDS011;9779;51.756;7.450;2022-07-29T09:26:28;2.73;;;1.20;;
19291;SDS011;9779;51.756;7.450;2022-07-29T09:28:55;2.90;;;1.27;;
19291;SDS011;9779;51.756;7.450;2022-07-29T09:31:35;4.83;;;1.20;;
19291;SDS011;9779;51.756;7.450;2022-07-29T09:34:04;6.67;;;1.60;;
19291;SDS011;9779;51.756;7.450;2022-07-29T09:36:30;2.58;;;1.52;;
19291;SDS011;9779;51.756;7.450;2022-07-29T09:39:03;6.88;;;1.33;;
19291;SDS011;9779;51.756;7.450;2022-07-29T09:41:29;2.03;;;1.30;;
19291;SDS011;9779;51.756;7.450;2022-07-29T09:43:55;3.63;;;1.52;;
19291;SDS011;9779;51.756;7.450;2022-07-29T09:46:21;10.20;;;1.87;;
19291;SDS011;9779;51.756;7.450;2022-07-29T09:51:36;3.58;;;1.08;;
19291;SDS011;9779;51.756;7.450;2022-07-29T09:54:02;3.33;;;1.77;;
19291;SDS011;9779;51.756;7.450;2022-07-29T09:56:46;6.82;;;2.25;;
19291;SDS011;9779;51.756;7.450;2022-07-29T09:59:13;9.07;;;1.50;;
19291;SDS011;9779;51.756;7.450;2022-07-29T10:01:38;3.47;;;1.70;;
19291;SDS011;9779;51.756;7.450;2022-07-29T10:04:04;3.30;;;1.55;;
19291;SDS011;9779;51.756;7.450;2022-07-29T10:06:30;2.28;;;1.30;;
19291;SDS011;9779;51.756;7.450;2022-07-29T10:09:09;6.47;;;1.57;;
19291;SDS011;9779;51.756;7.450;2022-07-29T10:11:35;4.67;;;1.30;;
19291;SDS011;9779;51.756;7.450;2022-07-29T10:14:02;2.97;;;1.60;;
19291;SDS011;9779;51.756;7.450;2022-07-29T10:16:28;3.65;;;1.75;;
19291;SDS011;9779;51.756;7.450;2022-07-29T10:18:58;6.07;;;1.60;;
19291;SDS011;9779;51.756;7.450;2022-07-29T10:21:27;2.47;;;1.53;;
19291;SDS011;9779;51.756;7.450;2022-07-29T10:23:54;2.93;;;1.30;;
19291;SDS011;9779;51.756;7.450;2022-07-29T10:26:21;7.50;;;1.35;;
19291;SDS011;9779;51.756;7.450;2022-07-29T10:28:47;2.33;;;1.40;;
19291;SDS011;9779;51.756;7.450;2022-07-29T10:31:19;1.77;;;1.40;;
19291;SDS011;9779;51.756;7.450;2022-07-29T10:36:25;1.83;;;1.40;;
19291;SDS011;9779;51.756;7.450;2022-07-29T10:44:34;4.47;;;1.60;;
19291;SDS011;9779;51.756;7.450;2022-07-29T10:47:04;3.17;;;1.57;;
19291;SDS011;9779;51.756;7.450;2022-07-29T10:49:30;5.13;;;2.40;;
19291;SDS011;9779;51.756;7.450;2022-07-29T10:59:41;4.40;;;2.50;;
19291;SDS011;9779;51.756;7.450;2022-07-29T11:04:59;2.30;;;1.77;;
19291;SDS011;9779;51.756;7.450;2022-07-29T11:07:26;11.80;;;2.00;;
19291;SDS011;9779;51.756;7.450;2022-07-29T11:15:11;7.23;;;1.70;;
19291;SDS011;9779;51.756;7.450;2022-07-29T11:23:01;2.30;;;1.77;;
19291;SDS011;9779;51.756;7.450;2022-07-29T11:25:41;7.07;;;1.70;;
19291;SDS011;9779;51.756;7.450;2022-07-29T11:28:13;7.03;;;1.87;;
19291;SDS011;9779;51.756;7.450;2022-07-29T11:30:53;4.03;;;1.77;;
19291;SDS011;9779;51.756;7.450;2022-07-29T11:33:26;2.87;;;1.60;;
19291;SDS011;9779;51.756;7.450;2022-07-29T11:38:38;6.57;;;2.70;;
19291;SDS011;9779;51.756;7.450;2022-07-29T11:49:07;7.60;;;2.00;;
19291;SDS011;9779;51.756;7.450;2022-07-29T11:51:34;3.00;;;1.90;;
19291;SDS011;9779;51.756;7.450;2022-07-29T11:54:01;7.23;;;2.27;;
19291;SDS011;9779;51.756;7.450;2022-07-29T11:56:26;4.80;;;2.10;;
19291;SDS011;9779;51.756;7.450;2022-07-29T11:59:06;3.77;;;2.10;;
19291;SDS011;9779;51.756;7.450;2022-07-29T12:01:34;4.53;;;2.00;;
19291;SDS011;9779;51.756;7.450;2022-07-29T12:04:06;3.13;;;1.87;;
19291;SDS011;9779;51.756;7.450;2022-07-29T12:06:35;7.57;;;2.43;;
19291;SDS011;9779;51.756;7.450;2022-07-29T12:09:06;7.97;;;2.23;;
19291;SDS011;9779;51.756;7.450;2022-07-29T12:11:32;5.23;;;2.13;;
19291;SDS011;9779;51.756;7.450;2022-07-29T12:13:58;4.30;;;1.90;;
19291;SDS011;9779;51.756;7.450;2022-07-29T12:16:33;4.37;;;2.33;;
19291;SDS011;9779;51.756;7.450;2022-07-29T12:19:02;2.40;;;1.80;;
19291;SDS011;9779;51.756;7.450;2022-07-29T12:21:50;5.27;;;2.30;;
19291;SDS011;9779;51.756;7.450;2022-07-29T12:24:16;6.90;;;2.63;;
19291;SDS011;9779;51.756;7.450;2022-07-29T12:26:53;2.23;;;1.87;;
19291;SDS011;9779;51.756;7.450;2022-07-29T12:29:20;7.03;;;2.10;;
19291;SDS011;9779;51.756;7.450;2022-07-29T12:31:50;4.43;;;2.47;;
19291;SDS011;9779;51.756;7.450;2022-07-29T12:34:19;4.33;;;2.10;;
19291;SDS011;9779;51.756;7.450;2022-07-29T12:36:47;3.50;;;2.70;;
19291;SDS011;9779;51.756;7.450;2022-07-29T12:39:13;5.13;;;2.10;;
19291;SDS011;9779;51.756;7.450;2022-07-29T12:41:40;4.00;;;2.03;;
19291;SDS011;9779;51.756;7.450;2022-07-29T12:44:06;4.57;;;2.30;;
19291;SDS011;9779;51.756;7.450;2022-07-29T12:46:32;6.68;;;2.60;;
19291;SDS011;9779;51.756;7.450;2022-07-29T12:48:57;13.88;;;1.95;;
19291;SDS011;9779;51.756;7.450;2022-07-29T12:51:36;7.35;;;2.40;;
19291;SDS011;9779;51.756;7.450;2022-07-29T12:54:04;6.45;;;2.17;;
19291;SDS011;9779;51.756;7.450;2022-07-29T12:56:31;3.33;;;2.20;;
19291;SDS011;9779;51.756;7.450;2022-07-29T12:58:57;5.32;;;1.83;;
19291;SDS011;9779;51.756;7.450;2022-07-29T13:01:23;4.80;;;1.92;;
19291;SDS011;9779;51.756;7.450;2022-07-29T13:03:49;3.78;;;2.20;;
19291;SDS011;9779;51.756;7.450;2022-07-29T13:06:28;4.85;;;2.40;;
19291;SDS011;9779;51.756;7.450;2022-07-29T13:11:31;3.45;;;1.80;;
19291;SDS011;9779;51.756;7.450;2022-07-29T13:14:02;5.88;;;2.08;;
19291;SDS011;9779;51.756;7.450;2022-07-29T13:16:28;4.35;;;1.60;;
19291;SDS011;9779;51.756;7.450;2022-07-29T13:19:03;6.50;;;2.22;;
19291;SDS011;9779;51.756;7.450;2022-07-29T13:21:30;5.28;;;1.88;;
19291;SDS011;9779;51.756;7.450;2022-07-29T13:23:56;6.30;;;1.73;;
19291;SDS011;9779;51.756;7.450;2022-07-29T13:26:22;2.25;;;0.95;;
19291;SDS011;9779;51.756;7.450;2022-07-29T13:28:47;2.80;;;1.38;;
19291;SDS011;9779;51.756;7.450;2022-07-29T13:31:13;7.60;;;2.45;;
19291;SDS011;9779;51.756;7.450;2022-07-29T13:33:38;8.82;;;1.67;;
19291;SDS011;9779;51.756;7.450;2022-07-29T13:36:04;8.02;;;1.55;;
19291;SDS011;9779;51.756;7.450;2022-07-29T13:38:29;5.93;;;1.80;;
19291;SDS011;9779;51.756;7.450;2022-07-29T13:40:55;3.97;;;1.70;;
19291;SDS011;9779;51.756;7.450;2022-07-29T13:43:20;3.10;;;1.85;;
19291;SDS011;9779;51.756;7.450;2022-07-29T13:45:46;5.05;;;1.50;;
19291;SDS011;9779;51.756;7.450;2022-07-29T13:48:12;3.25;;;1.63;;
19291;SDS011;9779;51.756;7.450;2022-07-29T13:50:37;6.70;;;1.65;;
19291;SDS011;9779;51.756;7.450;2022-07-29T13:53:03;2.78;;;1.35;;
19291;SDS011;9779;51.756;7.450;2022-07-29T13:55:28;2.10;;;1.45;;
19291;SDS011;9779;51.756;7.450;2022-07-29T13:57:54;5.85;;;1.65;;
19291;SDS011;9779;51.756;7.450;2022-07-29T14:00:20;4.53;;;1.67;;
19291;SDS011;9779;51.756;7.450;2022-07-29T14:02:45;3.65;;;1.48;;
19291;SDS011;9779;51.756;7.450;2022-07-29T14:05:11;3.80;;;1.35;;
19291;SDS011;9779;51.756;7.450;2022-07-29T14:07:37;6.97;;;1.48;;
19291;SDS011;9779;51.756;7.450;2022-07-29T14:10:04;5.30;;;1.67;;
19291;SDS011;9779;51.756;7.450;2022-07-29T14:12:30;5.85;;;1.92;;
19291;SDS011;9779;51.756;7.450;2022-07-29T14:14:56;4.47;;;1.20;;
19291;SDS011;9779;51.756;7.450;2022-07-29T14:17:22;3.50;;;1.40;;
19291;SDS011;9779;51.756;7.450;2022-07-29T14:19:48;5.80;;;1.15;;
19291;SDS011;9779;51.756;7.450;2022-07-29T14:22:13;6.10;;;1.58;;
19291;SDS011;9779;51.756;7.450;2022-07-29T14:24:39;3.25;;;1.52;;
19291;SDS011;9779;51.756;7.450;2022-07-29T14:27:05;5.32;;;1.50;;
19291;SDS011;9779;51.756;7.450;2022-07-29T14:29:31;8.02;;;1.08;;
19291;SDS011;9779;51.756;7.450;2022-07-29T14:31:57;3.83;;;1.08;;
19291;SDS011;9779;51.756;7.450;2022-07-29T14:34:23;1.58;;;1.40;;
19291;SDS011;9779;51.756;7.450;2022-07-29T14:36:49;3.03;;;1.23;;
19291;SDS011;9779;51.756;7.450;2022-07-29T14:39:14;2.70;;;1.40;;
19291;SDS011;9779;51.756;7.450;2022-07-29T14:41:41;6.57;;;1.60;;
19291;SDS011;9779;51.756;7.450;2022-07-29T14:44:08;3.58;;;1.25;;
19291;SDS011;9779;51.756;7.450;2022-07-29T14:46:34;4.93;;;1.40;;
19291;SDS011;9779;51.756;7.450;2022-07-29T14:48:59;2.83;;;1.45;;
19291;SDS011;9779;51.756;7.450;2022-07-29T14:51:25;6.28;;;1.38;;
19291;SDS011;9779;51.756;7.450;2022-07-29T14:53:51;8.73;;;1.50;;
19291;SDS011;9779;51.756;7.450;2022-07-29T14:56:16;8.73;;;1.77;;
19291;SDS011;9779;51.756;7.450;2022-07-29T14:58:42;3.58;;;1.48;;
19291;SDS011;9779;51.756;7.450;2022-07-29T15:01:08;6.95;;;1.77;;
19291;SDS011;9779;51.756;7.450;2022-07-29T15:03:33;4.47;;;1.45;;
19291;SDS011;9779;51.756;7.450;2022-07-29T15:05:59;2.22;;;1.10;;
19291;SDS011;9779;51.756;7.450;2022-07-29T15:08:24;7.25;;;1.48;;
19291;SDS011;9779;51.756;7.450;2022-07-29T15:10:50;6.38;;;1.70;;
19291;SDS011;9779;51.756;7.450;2022-07-29T15:13:16;6.97;;;1.45;;
19291;SDS011;9779;51.756;7.450;2022-07-29T15:15:41;3.67;;;1.38;;
19291;SDS011;9779;51.756;7.450;2022-07-29T15:18:07;6.63;;;1.38;;
19291;SDS011;9779;51.756;7.450;2022-07-29T15:20:34;2.10;;;1.00;;
19291;SDS011;9779;51.756;7.450;2022-07-29T15:23:01;2.20;;;1.23;;
19291;SDS011;9779;51.756;7.450;2022-07-29T15:25:30;2.92;;;1.38;;
19291;SDS011;9779;51.756;7.450;2022-07-29T15:28:01;3.58;;;1.55;;
19291;SDS011;9779;51.756;7.450;2022-07-29T15:30:29;1.55;;;1.08;;
19291;SDS011;9779;51.756;7.450;2022-07-29T15:32:55;8.05;;;1.70;;
19291;SDS011;9779;51.756;7.450;2022-07-29T15:35:22;3.03;;;1.50;;
19291;SDS011;9779;51.756;7.450;2022-07-29T15:37:47;3.85;;;1.70;;
19291;SDS011;9779;51.756;7.450;2022-07-29T15:40:14;4.80;;;1.20;;
19291;SDS011;9779;51.756;7.450;2022-07-29T15:42:41;3.08;;;1.60;;
19291;SDS011;9779;51.756;7.450;2022-07-29T15:45:07;2.92;;;1.67;;
19291;SDS011;9779;51.756;7.450;2022-07-29T15:47:34;3.63;;;0.90;;
19291;SDS011;9779;51.756;7.450;2022-07-29T15:50:00;3.45;;;1.38;;
19291;SDS011;9779;51.756;7.450;2022-07-29T15:52:26;3.92;;;1.38;;
19291;SDS011;9779;51.756;7.450;2022-07-29T15:54:54;3.42;;;1.30;;
19291;SDS011;9779;51.756;7.450;2022-07-29T15:57:21;4.65;;;1.40;;
19291;SDS011;9779;51.756;7.450;2022-07-29T15:59:48;6.07;;;1.55;;